createdAt,value
2018-05-08T00:00:56.939Z,0
2018-05-08T00:02:07.083Z,0
2018-05-08T00:03:17.230Z,0
2018-05-08T00:04:28.352Z,0
2018-05-08T00:05:38.533Z,0
2018-05-08T00:06:48.681Z,0
2018-05-08T00:07:58.907Z,0
2018-05-08T00:09:09.074Z,0
2018-05-08T00:10:19.205Z,0
2018-05-08T00:11:29.385Z,0
2018-05-08T00:12:39.543Z,0
2018-05-08T00:13:49.416Z,0
2018-05-08T00:14:59.557Z,0
2018-05-08T00:16:09.679Z,0
2018-05-08T00:17:19.874Z,0
2018-05-08T00:18:29.771Z,0
2018-05-08T00:19:39.888Z,0
2018-05-08T00:20:50.087Z,0
2018-05-08T00:22:00.252Z,0
2018-05-08T00:23:10.475Z,0
2018-05-08T00:24:20.608Z,0
2018-05-08T00:25:30.770Z,0
2018-05-08T00:26:41.020Z,0
2018-05-08T00:27:51.051Z,0
2018-05-08T00:29:00.944Z,0
2018-05-08T00:30:11.127Z,0
2018-05-08T00:31:21.301Z,0
2018-05-08T00:32:31.516Z,0
2018-05-08T00:33:41.674Z,0
2018-05-08T00:34:51.795Z,0
2018-05-08T00:36:01.964Z,0
2018-05-08T00:37:12.120Z,0
2018-05-08T00:38:22.283Z,0
2018-05-08T00:39:32.509Z,0
2018-05-08T00:40:42.389Z,0
2018-05-08T00:41:52.514Z,0
2018-05-08T00:43:02.647Z,0
2018-05-08T00:44:12.807Z,0
2018-05-08T00:45:22.949Z,0
2018-05-08T00:46:32.463Z,0
2018-05-08T00:47:42.588Z,0
2018-05-08T00:48:52.794Z,0
2018-05-08T00:50:02.928Z,0
2018-05-08T00:51:13.177Z,0
2018-05-08T00:52:23.296Z,0
2018-05-08T00:53:33.433Z,0
2018-05-08T00:54:43.561Z,0
2018-05-08T00:55:53.760Z,0
2018-05-08T00:57:03.947Z,0
2018-05-08T00:58:14.176Z,0
2018-05-08T00:59:24.304Z,0
2018-05-08T01:00:34.511Z,0
2018-05-08T01:01:44.735Z,0
2018-05-08T01:02:55.152Z,0
2018-05-08T01:04:05.041Z,0
2018-05-08T01:05:14.914Z,0
2018-05-08T01:06:25.152Z,0
2018-05-08T01:07:35.273Z,0
2018-05-08T01:08:45.407Z,0
2018-05-08T01:09:55.588Z,0
2018-05-08T01:11:05.766Z,0
2018-05-08T01:12:15.899Z,0
2018-05-08T01:13:26.040Z,0
2018-05-08T01:14:36.288Z,0
2018-05-08T01:15:46.566Z,0
2018-05-08T01:16:56.735Z,0
2018-05-08T01:18:06.919Z,0
2018-05-08T01:19:17.070Z,0
2018-05-08T01:20:27.221Z,0
2018-05-08T01:21:37.107Z,0
2018-05-08T01:22:47.295Z,0
2018-05-08T01:23:57.065Z,0
2018-05-08T01:25:07.211Z,0
2018-05-08T01:26:17.400Z,0
2018-05-08T01:27:27.812Z,0
2018-05-08T01:28:37.984Z,0
2018-05-08T01:29:47.866Z,0
2018-05-08T01:30:58.714Z,0
2018-05-08T01:32:09.004Z,0
2018-05-08T01:33:18.897Z,0
2018-05-08T01:34:28.689Z,0
2018-05-08T01:35:38.821Z,0
2018-05-08T01:36:48.980Z,0
2018-05-08T01:37:59.155Z,0
2018-05-08T01:39:09.042Z,0
2018-05-08T01:40:19.214Z,0
2018-05-08T01:41:29.389Z,0
2018-05-08T01:42:39.558Z,0
2018-05-08T01:43:49.705Z,0
2018-05-08T01:44:59.908Z,0
2018-05-08T01:46:09.810Z,0
2018-05-08T01:47:19.997Z,0
2018-05-08T01:48:30.250Z,0
2018-05-08T01:49:40.030Z,0
2018-05-08T01:50:50.213Z,0
2018-05-08T01:52:00.416Z,0
2018-05-08T01:53:10.311Z,0
2018-05-08T01:54:20.435Z,0
2018-05-08T01:55:30.592Z,0
2018-05-08T01:56:40.788Z,0
2018-05-08T01:57:50.950Z,0
2018-05-08T01:59:00.903Z,0
2018-05-08T02:00:11.028Z,0
2018-05-08T02:01:21.259Z,0
2018-05-08T02:02:31.529Z,0
2018-05-08T02:03:41.393Z,0
2018-05-08T02:04:51.299Z,0
2018-05-08T02:06:01.531Z,0
2018-05-08T02:07:11.671Z,0
2018-05-08T02:08:21.810Z,0
2018-05-08T02:09:32.655Z,0
2018-05-08T02:10:42.792Z,0
2018-05-08T02:11:52.911Z,0
2018-05-08T02:13:03.054Z,0
2018-05-08T02:14:12.960Z,0
2018-05-08T02:15:23.112Z,0
2018-05-08T02:16:32.976Z,0
2018-05-08T02:17:43.144Z,0
2018-05-08T02:18:53.277Z,0
2018-05-08T02:20:03.426Z,0
2018-05-08T02:21:13.044Z,0
2018-05-08T02:22:23.186Z,0
2018-05-08T02:23:33.454Z,0
2018-05-08T02:24:43.732Z,0
2018-05-08T02:25:54.830Z,0
2018-05-08T02:27:05.132Z,0
2018-05-08T02:28:15.024Z,0
2018-05-08T02:29:25.154Z,0
2018-05-08T02:30:35.295Z,0
2018-05-08T02:31:45.190Z,0
2018-05-08T02:32:55.333Z,0
2018-05-08T02:34:05.637Z,0
2018-05-08T02:35:15.811Z,0
2018-05-08T02:36:26.015Z,0
2018-05-08T02:37:36.186Z,0
2018-05-08T02:38:46.423Z,0
2018-05-08T02:39:56.571Z,0
2018-05-08T02:41:06.748Z,0
2018-05-08T02:42:16.915Z,0
2018-05-08T02:43:27.147Z,0
2018-05-08T02:44:37.303Z,0
2018-05-08T02:45:47.419Z,0
2018-05-08T02:46:57.557Z,0
2018-05-08T02:48:07.441Z,0
2018-05-08T02:49:17.590Z,0
2018-05-08T02:50:27.732Z,0
2018-05-08T02:51:37.939Z,0
2018-05-08T02:52:48.262Z,0
2018-05-08T02:53:58.428Z,0
2018-05-08T02:55:08.579Z,0
2018-05-08T02:56:18.727Z,0
2018-05-08T02:57:28.995Z,0
2018-05-08T02:58:39.132Z,0
2018-05-08T02:59:49.428Z,0
2018-05-08T03:00:59.325Z,0
2018-05-08T03:02:09.201Z,0
2018-05-08T03:03:19.352Z,0
2018-05-08T03:04:29.471Z,0
2018-05-08T03:05:39.607Z,0
2018-05-08T03:06:49.835Z,0
2018-05-08T03:08:00.085Z,0
2018-05-08T03:09:10.247Z,0
2018-05-08T03:10:20.451Z,0
2018-05-08T03:11:30.660Z,0
2018-05-08T03:12:40.845Z,0
2018-05-08T03:13:51.048Z,0
2018-05-08T03:15:02.144Z,0
2018-05-08T03:16:12.286Z,0
2018-05-08T03:17:22.408Z,0
2018-05-08T03:18:33.531Z,0
2018-05-08T03:19:43.657Z,0
2018-05-08T03:20:53.804Z,0
2018-05-08T03:22:03.923Z,0
2018-05-08T03:23:13.954Z,0
2018-05-08T03:24:24.133Z,0
2018-05-08T03:25:34.319Z,5
2018-05-08T03:26:44.608Z,5
2018-05-08T03:27:54.743Z,5
2018-05-08T03:29:04.999Z,5
2018-05-08T03:30:15.155Z,5
2018-05-08T03:31:25.290Z,5
2018-05-08T03:32:35.482Z,5
2018-05-08T03:33:45.891Z,5
2018-05-08T03:34:56.092Z,10
2018-05-08T03:36:05.682Z,10
2018-05-08T03:37:15.862Z,10
2018-05-08T03:38:26.026Z,10
2018-05-08T03:39:36.177Z,10
2018-05-08T03:40:46.315Z,10
2018-05-08T03:41:56.539Z,15
2018-05-08T03:43:06.707Z,15
2018-05-08T03:44:16.604Z,15
2018-05-08T03:45:26.783Z,15
2018-05-08T03:46:36.902Z,15
2018-05-08T03:47:47.035Z,20
2018-05-08T03:48:57.238Z,20
2018-05-08T03:50:07.384Z,20
2018-05-08T03:51:17.625Z,20
2018-05-08T03:52:27.824Z,25
2018-05-08T03:53:37.972Z,25
2018-05-08T03:54:48.106Z,25
2018-05-08T03:55:58.310Z,25
2018-05-08T03:57:08.451Z,25
2018-05-08T03:58:18.608Z,30
2018-05-08T03:59:28.773Z,30
2018-05-08T04:00:38.994Z,30
2018-05-08T04:01:49.178Z,30
2018-05-08T04:02:59.344Z,35
2018-05-08T04:04:09.610Z,35
2018-05-08T04:05:19.753Z,35
2018-05-08T04:06:29.912Z,35
2018-05-08T04:07:40.041Z,35
2018-05-08T04:08:50.179Z,40
2018-05-08T04:10:00.047Z,40
2018-05-08T04:11:10.177Z,40
2018-05-08T04:12:20.305Z,40
2018-05-08T04:13:30.508Z,45
2018-05-08T04:14:40.112Z,45
2018-05-08T04:15:50.266Z,45
2018-05-08T04:17:00.410Z,45
2018-05-08T04:18:10.373Z,50
2018-05-08T04:19:20.605Z,50
2018-05-08T04:20:30.961Z,50
2018-05-08T04:21:41.082Z,50
2018-05-08T04:22:51.313Z,55
2018-05-08T04:24:01.212Z,55
2018-05-08T04:25:11.331Z,55
2018-05-08T04:26:21.470Z,55
2018-05-08T04:27:31.590Z,60
2018-05-08T04:28:41.754Z,60
2018-05-08T04:29:51.889Z,60
2018-05-08T04:31:01.808Z,60
2018-05-08T04:32:12.149Z,65
2018-05-08T04:33:22.297Z,65
2018-05-08T04:34:32.575Z,65
2018-05-08T04:35:42.735Z,65
2018-05-08T04:36:52.982Z,70
2018-05-08T04:38:03.108Z,70
2018-05-08T04:39:13.495Z,70
2018-05-08T04:40:23.663Z,70
2018-05-08T04:41:33.794Z,75
2018-05-08T04:42:43.701Z,75
2018-05-08T04:43:53.581Z,70
2018-05-08T04:45:03.710Z,70
2018-05-08T04:46:13.839Z,75
2018-05-08T04:47:24.256Z,75
2018-05-08T04:48:34.398Z,75
2018-05-08T04:49:44.548Z,75
2018-05-08T04:50:54.729Z,80
2018-05-08T04:52:04.921Z,80
2018-05-08T04:53:14.804Z,80
2018-05-08T04:54:24.987Z,80
2018-05-08T04:55:35.204Z,85
2018-05-08T04:56:45.339Z,85
2018-05-08T04:57:55.487Z,85
2018-05-08T04:59:05.382Z,85
2018-05-08T05:00:15.512Z,95
2018-05-08T05:01:25.647Z,90
2018-05-08T05:02:35.836Z,90
2018-05-08T05:03:45.766Z,90
2018-05-08T05:04:55.971Z,90
2018-05-08T05:06:06.129Z,95
2018-05-08T05:07:16.251Z,95
2018-05-08T05:08:26.470Z,95
2018-05-08T05:09:36.646Z,95
2018-05-08T05:10:47.045Z,100
2018-05-08T05:11:57.225Z,100
2018-05-08T05:13:07.443Z,100
2018-05-08T05:14:17.583Z,100
2018-05-08T05:15:27.551Z,100
2018-05-08T05:16:37.851Z,105
2018-05-08T05:17:47.989Z,105
2018-05-08T05:18:58.228Z,105
2018-05-08T05:20:08.116Z,110
2018-05-08T05:21:18.007Z,110
2018-05-08T05:22:27.881Z,105
2018-05-08T05:23:38.018Z,105
2018-05-08T05:24:47.945Z,105
2018-05-08T05:25:57.820Z,105
2018-05-08T05:27:08.025Z,110
2018-05-08T05:28:17.873Z,110
2018-05-08T05:29:28.095Z,110
2018-05-08T05:30:38.391Z,110
2018-05-08T05:31:48.915Z,110
2018-05-08T05:32:59.090Z,115
2018-05-08T05:34:09.233Z,115
2018-05-08T05:35:19.359Z,115
2018-05-08T05:36:29.490Z,115
2018-05-08T05:37:39.401Z,115
2018-05-08T05:38:49.542Z,120
2018-05-08T05:39:59.668Z,120
2018-05-08T05:41:09.805Z,120
2018-05-08T05:42:19.962Z,120
2018-05-08T05:43:30.163Z,120
2018-05-08T05:44:40.356Z,120
2018-05-08T05:45:50.224Z,125
2018-05-08T05:47:00.116Z,125
2018-05-08T05:48:10.252Z,125
2018-05-08T05:49:20.398Z,125
2018-05-08T05:50:30.555Z,125
2018-05-08T05:51:40.712Z,125
2018-05-08T05:52:50.920Z,125
2018-05-08T05:54:01.051Z,125
2018-05-08T05:55:11.190Z,125
2018-05-08T05:56:21.313Z,125
2018-05-08T05:57:31.183Z,125
2018-05-08T05:58:41.151Z,125
2018-05-08T05:59:51.363Z,125
2018-05-08T06:01:01.546Z,125
2018-05-08T06:02:11.512Z,125
2018-05-08T06:03:21.635Z,125
2018-05-08T06:04:31.789Z,125
2018-05-08T06:05:42.034Z,130
2018-05-08T06:06:51.645Z,130
2018-05-08T06:08:01.634Z,130
2018-05-08T06:09:11.795Z,130
2018-05-08T06:10:21.955Z,130
2018-05-08T06:11:32.189Z,130
2018-05-08T06:12:42.129Z,130
2018-05-08T06:13:52.031Z,130
2018-05-08T06:15:01.940Z,130
2018-05-08T06:16:12.077Z,130
2018-05-08T06:17:22.457Z,130
2018-05-08T06:18:32.648Z,135
2018-05-08T06:19:42.816Z,135
2018-05-08T06:20:53.079Z,135
2018-05-08T06:22:03.312Z,135
2018-05-08T06:23:13.084Z,135
2018-05-08T06:24:23.239Z,135
2018-05-08T06:25:33.480Z,135
2018-05-08T06:26:43.785Z,135
2018-05-08T06:27:53.936Z,135
2018-05-08T06:29:04.162Z,135
2018-05-08T06:30:14.443Z,140
2018-05-08T06:31:24.583Z,140
2018-05-08T06:32:34.727Z,140
2018-05-08T06:33:44.612Z,140
2018-05-08T06:34:54.752Z,140
2018-05-08T06:36:04.915Z,140
2018-05-08T06:37:15.095Z,140
2018-05-08T06:38:25.307Z,140
2018-05-08T06:39:35.749Z,140
2018-05-08T06:40:45.986Z,140
2018-05-08T06:41:56.135Z,140
2018-05-08T06:43:06.016Z,140
2018-05-08T06:44:15.794Z,140
2018-05-08T06:45:26.121Z,140
2018-05-08T06:46:36.329Z,150
2018-05-08T06:47:46.194Z,140
2018-05-08T06:48:56.407Z,145
2018-05-08T06:50:06.658Z,145
2018-05-08T06:51:16.931Z,145
2018-05-08T06:52:26.807Z,145
2018-05-08T06:53:36.941Z,145
2018-05-08T06:54:47.158Z,145
2018-05-08T06:55:57.298Z,145
2018-05-08T06:57:07.269Z,145
2018-05-08T06:58:17.694Z,145
2018-05-08T06:59:27.838Z,145
2018-05-08T07:00:38.010Z,145
2018-05-08T07:01:48.167Z,150
2018-05-08T07:02:58.398Z,150
2018-05-08T07:04:08.526Z,150
2018-05-08T07:05:18.676Z,150
2018-05-08T07:06:28.819Z,150
2018-05-08T07:07:39.005Z,150
2018-05-08T07:08:49.154Z,150
2018-05-08T07:09:59.390Z,150
2018-05-08T07:11:09.630Z,150
2018-05-08T07:12:19.505Z,155
2018-05-08T07:13:29.647Z,155
2018-05-08T07:14:39.777Z,155
2018-05-08T07:15:50.452Z,155
2018-05-08T07:17:00.691Z,155
2018-05-08T07:18:11.000Z,155
2018-05-08T07:19:20.879Z,160
2018-05-08T07:20:31.071Z,160
2018-05-08T07:21:41.221Z,160
2018-05-08T07:22:51.407Z,160
2018-05-08T07:24:01.877Z,165
2018-05-08T07:25:11.899Z,170
2018-05-08T07:26:22.034Z,165
2018-05-08T07:27:32.228Z,165
2018-05-08T07:28:42.401Z,170
2018-05-08T07:29:52.631Z,170
2018-05-08T07:31:02.920Z,170
2018-05-08T07:32:13.077Z,170
2018-05-08T07:33:23.342Z,175
2018-05-08T07:34:33.214Z,175
2018-05-08T07:35:43.377Z,175
2018-05-08T07:36:53.281Z,175
2018-05-08T07:38:03.483Z,180
2018-05-08T07:39:13.603Z,180
2018-05-08T07:40:23.750Z,185
2018-05-08T07:41:33.906Z,185
2018-05-08T07:42:43.813Z,190
2018-05-08T07:43:53.698Z,190
2018-05-08T07:45:03.626Z,190
2018-05-08T07:46:13.811Z,190
2018-05-08T07:47:24.020Z,195
2018-05-08T07:48:34.194Z,195
2018-05-08T07:49:44.342Z,195
2018-05-08T07:50:54.223Z,200
2018-05-08T07:52:04.446Z,200
2018-05-08T07:53:14.349Z,205
2018-05-08T07:54:24.481Z,205
2018-05-08T07:55:34.657Z,205
2018-05-08T07:56:44.804Z,210
2018-05-08T07:57:54.968Z,210
2018-05-08T07:59:04.863Z,215
2018-05-08T08:00:15.026Z,215
2018-05-08T08:01:25.254Z,215
2018-05-08T08:02:35.436Z,220
2018-05-08T08:03:45.808Z,220
2018-05-08T08:04:55.990Z,220
2018-05-08T08:06:07.124Z,220
2018-05-08T08:07:17.424Z,220
2018-05-08T08:08:27.584Z,220
2018-05-08T08:09:37.827Z,220
2018-05-08T08:10:47.725Z,220
2018-05-08T08:11:57.871Z,225
2018-05-08T08:13:08.056Z,225
2018-05-08T08:14:18.196Z,225
2018-05-08T08:15:28.448Z,225
2018-05-08T08:16:38.358Z,225
2018-05-08T08:17:48.509Z,230
2018-05-08T08:18:58.425Z,235
2018-05-08T08:20:08.566Z,250
2018-05-08T08:21:18.733Z,275
2018-05-08T08:22:28.601Z,295
2018-05-08T08:23:38.785Z,320
2018-05-08T08:24:48.963Z,345
2018-05-08T08:25:59.126Z,360
2018-05-08T08:27:10.227Z,375
2018-05-08T08:28:20.384Z,390
2018-05-08T08:29:30.553Z,405
2018-05-08T08:30:40.940Z,425
2018-05-08T08:31:51.111Z,785
2018-05-08T08:33:01.270Z,1710
2018-05-08T08:34:11.470Z,2020
2018-05-08T08:35:21.413Z,2155
2018-05-08T08:36:31.569Z,2150
2018-05-08T08:37:41.720Z,2140
2018-05-08T08:38:51.996Z,2045
2018-05-08T08:40:02.157Z,1960
2018-05-08T08:41:12.043Z,1885
2018-05-08T08:42:22.368Z,1925
2018-05-08T08:43:32.508Z,1945
2018-05-08T08:44:42.651Z,2010
2018-05-08T08:45:52.298Z,2095
2018-05-08T08:47:02.455Z,2395
2018-05-08T08:48:12.651Z,2705
2018-05-08T08:49:22.857Z,2825
2018-05-08T08:50:32.489Z,3010
2018-05-08T08:51:42.361Z,3045
2018-05-08T08:52:52.516Z,3080
2018-05-08T08:54:02.724Z,3075
2018-05-08T08:55:12.652Z,2885
2018-05-08T08:56:22.838Z,2610
2018-05-08T08:57:33.019Z,2485
2018-05-08T08:58:42.957Z,2450
2018-05-08T08:59:53.113Z,2395
2018-05-08T09:01:03.331Z,2295
2018-05-08T09:02:13.483Z,2185
2018-05-08T09:03:23.395Z,2125
2018-05-08T09:04:33.533Z,2095
2018-05-08T09:05:43.708Z,2100
2018-05-08T09:06:53.865Z,2100
2018-05-08T09:08:07.007Z,2075
2018-05-08T09:09:17.239Z,2070
2018-05-08T09:10:27.204Z,2170
2018-05-08T09:11:37.377Z,2305
2018-05-08T09:12:47.284Z,2475
2018-05-08T09:13:57.591Z,2565
2018-05-08T09:15:07.838Z,2600
2018-05-08T09:16:18.058Z,2650
2018-05-08T09:17:28.262Z,2610
2018-05-08T09:18:38.410Z,2615
2018-05-08T09:19:48.935Z,2655
2018-05-08T09:20:59.127Z,2655
2018-05-08T09:22:09.288Z,2615
2018-05-08T09:23:19.455Z,2595
2018-05-08T09:24:29.623Z,2580
2018-05-08T09:25:41.245Z,2575
2018-05-08T09:26:51.517Z,2550
2018-05-08T09:28:01.430Z,2510
2018-05-08T09:29:11.417Z,2520
2018-05-08T09:30:22.631Z,2615
2018-05-08T09:31:32.827Z,2635
2018-05-08T09:32:42.981Z,2665
2018-05-08T09:33:53.169Z,2675
2018-05-08T09:35:03.357Z,2690
2018-05-08T09:36:13.521Z,2710
2018-05-08T09:37:23.690Z,2740
2018-05-08T09:38:33.837Z,2710
2018-05-08T09:39:43.805Z,2635
2018-05-08T09:40:54.294Z,2535
2018-05-08T09:42:04.216Z,2530
2018-05-08T09:43:14.411Z,2580
2018-05-08T09:44:24.336Z,2640
2018-05-08T09:45:34.531Z,2720
2018-05-08T09:46:44.773Z,2765
2018-05-08T09:47:54.702Z,2795
2018-05-08T09:49:05.353Z,2785
2018-05-08T09:50:15.595Z,2725
2018-05-08T09:51:25.758Z,2690
2018-05-08T09:52:35.999Z,2600
2018-05-08T09:53:46.146Z,2505
2018-05-08T09:54:56.335Z,2385
2018-05-08T09:56:06.533Z,2335
2018-05-08T09:57:16.728Z,2370
2018-05-08T09:58:26.658Z,2455
2018-05-08T09:59:36.845Z,2575
2018-05-08T10:00:47.018Z,2670
2018-05-08T10:01:58.621Z,2750
2018-05-08T10:03:08.819Z,2790
2018-05-08T10:04:18.986Z,2765
2018-05-08T10:05:28.796Z,2745
2018-05-08T10:06:39.201Z,2710
2018-05-08T10:07:49.380Z,2680
2018-05-08T10:08:59.590Z,2675
2018-05-08T10:10:09.764Z,2755
2018-05-08T10:11:19.688Z,2875
2018-05-08T10:12:29.848Z,2935
2018-05-08T10:13:40.043Z,2925
2018-05-08T10:14:50.219Z,2885
2018-05-08T10:16:00.362Z,2825
2018-05-08T10:17:10.180Z,2820
2018-05-08T10:18:20.366Z,2820
2018-05-08T10:19:30.358Z,2870
2018-05-08T10:20:40.726Z,3060
2018-05-08T10:21:51.008Z,3315
2018-05-08T10:23:01.262Z,3455
2018-05-08T10:24:11.198Z,3530
2018-05-08T10:25:21.387Z,3515
2018-05-08T10:26:31.570Z,3480
2018-05-08T10:27:41.491Z,3435
2018-05-08T10:28:51.666Z,3355
2018-05-08T10:30:01.635Z,3305
2018-05-08T10:31:11.838Z,3250
2018-05-08T10:32:22.057Z,3255
2018-05-08T10:33:32.251Z,3320
2018-05-08T10:34:42.404Z,3355
2018-05-08T10:35:52.620Z,3365
2018-05-08T10:37:02.779Z,3330
2018-05-08T10:38:13.116Z,3255
2018-05-08T10:39:23.032Z,3120
2018-05-08T10:40:33.178Z,3030
2018-05-08T10:41:43.343Z,2995
2018-05-08T10:42:53.831Z,2960
2018-05-08T10:44:04.135Z,2935
2018-05-08T10:45:14.369Z,2970
2018-05-08T10:46:24.613Z,3060
2018-05-08T10:47:34.844Z,3125
2018-05-08T10:48:45.107Z,3240
2018-05-08T10:49:55.396Z,3355
2018-05-08T10:51:05.709Z,3235
2018-05-08T10:52:15.903Z,3155
2018-05-08T10:53:26.133Z,3050
2018-05-08T10:54:37.272Z,2935
2018-05-08T10:55:47.866Z,2995
2018-05-08T10:56:58.149Z,3060
2018-05-08T10:58:08.341Z,3135
2018-05-08T10:59:18.543Z,3190
2018-05-08T11:00:28.461Z,3210
2018-05-08T11:01:38.511Z,3205
2018-05-08T11:02:48.800Z,3155
2018-05-08T11:03:58.964Z,3085
2018-05-08T11:05:09.119Z,2980
2018-05-08T11:06:19.485Z,2990
2018-05-08T11:07:29.689Z,3055
2018-05-08T11:08:39.924Z,3150
2018-05-08T11:09:50.107Z,3200
2018-05-08T11:11:00.315Z,3240
2018-05-08T11:12:10.478Z,3175
2018-05-08T11:13:20.638Z,3075
2018-05-08T11:14:30.609Z,3020
2018-05-08T11:15:40.804Z,3035
2018-05-08T11:16:50.979Z,3055
2018-05-08T11:18:01.198Z,3080
2018-05-08T11:19:11.552Z,3075
2018-05-08T11:20:21.741Z,3040
2018-05-08T11:21:31.918Z,2980
2018-05-08T11:22:42.101Z,3000
2018-05-08T11:23:52.264Z,3095
2018-05-08T11:25:02.470Z,3265
2018-05-08T11:26:12.646Z,3425
2018-05-08T11:27:22.550Z,3510
2018-05-08T11:28:32.765Z,3495
2018-05-08T11:29:42.808Z,3440
2018-05-08T11:30:54.011Z,3285
2018-05-08T11:32:04.300Z,3175
2018-05-08T11:33:14.478Z,3015
2018-05-08T11:34:24.693Z,2925
2018-05-08T11:35:35.008Z,2885
2018-05-08T11:36:45.176Z,2895
2018-05-08T11:37:55.427Z,2935
2018-05-08T11:39:05.695Z,2925
2018-05-08T11:40:15.904Z,2985
2018-05-08T11:41:26.126Z,3060
2018-05-08T11:42:36.316Z,3090
2018-05-08T11:43:46.490Z,3100
2018-05-08T11:44:56.781Z,2990
2018-05-08T11:46:06.981Z,2820
2018-05-08T11:47:17.186Z,2710
2018-05-08T11:48:26.775Z,2640
2018-05-08T11:49:37.067Z,2650
2018-05-08T11:50:47.299Z,2745
2018-05-08T11:51:57.500Z,2890
2018-05-08T11:53:07.731Z,3055
2018-05-08T11:54:18.042Z,3115
2018-05-08T11:55:27.973Z,3045
2018-05-08T11:56:38.163Z,2925
2018-05-08T11:57:48.320Z,2850
2018-05-08T11:58:58.498Z,2830
2018-05-08T12:00:08.676Z,2855
2018-05-08T12:01:18.837Z,2895
2018-05-08T12:02:29.152Z,2995
2018-05-08T12:03:39.318Z,3130
2018-05-08T12:04:49.626Z,3345
2018-05-08T12:05:59.889Z,3470
2018-05-08T12:07:10.061Z,3470
2018-05-08T12:08:21.186Z,3390
2018-05-08T12:09:31.364Z,3220
2018-05-08T12:10:41.378Z,3085
2018-05-08T12:11:51.543Z,2975
2018-05-08T12:13:01.716Z,2925
2018-05-08T12:14:11.892Z,2905
2018-05-08T12:15:22.065Z,2915
2018-05-08T12:16:32.317Z,2910
2018-05-08T12:17:42.495Z,2930
2018-05-08T12:18:52.673Z,2975
2018-05-08T12:20:02.914Z,3035
2018-05-08T12:21:12.832Z,3085
2018-05-08T12:22:23.001Z,3115
2018-05-08T12:23:33.169Z,3085
2018-05-08T12:24:43.389Z,3070
2018-05-08T12:25:53.223Z,3100
2018-05-08T12:27:03.401Z,3120
2018-05-08T12:28:13.560Z,3075
2018-05-08T12:29:23.743Z,2955
2018-05-08T12:30:33.971Z,2830
2018-05-08T12:31:44.173Z,2760
2018-05-08T12:32:54.397Z,2755
2018-05-08T12:34:04.587Z,2745
2018-05-08T12:35:14.802Z,2765
2018-05-08T12:36:24.996Z,2800
2018-05-08T12:37:35.213Z,2850
2018-05-08T12:38:45.127Z,2855
2018-05-08T12:39:54.938Z,2815
2018-05-08T12:41:05.115Z,2785
2018-05-08T12:42:15.665Z,2735
2018-05-08T12:43:26.897Z,2705
2018-05-08T12:44:37.071Z,2760
2018-05-08T12:45:47.251Z,2855
2018-05-08T12:46:57.530Z,2910
2018-05-08T12:48:07.805Z,2995
2018-05-08T12:49:18.043Z,3060
2018-05-08T12:50:28.359Z,2985
2018-05-08T12:51:38.613Z,2860
2018-05-08T12:52:48.549Z,2730
2018-05-08T12:53:58.790Z,2685
2018-05-08T12:55:08.965Z,2670
2018-05-08T12:56:19.389Z,2685
2018-05-08T12:57:29.622Z,2735
2018-05-08T12:58:39.779Z,2795
2018-05-08T12:59:49.698Z,2795
2018-05-08T13:00:59.863Z,2775
2018-05-08T13:02:10.043Z,2800
2018-05-08T13:03:20.212Z,2835
2018-05-08T13:04:30.399Z,2890
2018-05-08T13:05:40.293Z,2890
2018-05-08T13:06:50.455Z,2845
2018-05-08T13:08:00.400Z,2780
2018-05-08T13:09:10.671Z,2775
2018-05-08T13:10:20.627Z,2780
2018-05-08T13:11:30.553Z,2780
2018-05-08T13:12:40.734Z,2795
2018-05-08T13:13:51.142Z,2800
2018-05-08T13:15:01.326Z,2815
2018-05-08T13:16:11.590Z,2765
2018-05-08T13:17:21.745Z,2665
2018-05-08T13:18:32.132Z,2590
2018-05-08T13:19:43.297Z,2575
2018-05-08T13:20:53.418Z,2610
2018-05-08T13:22:03.879Z,2620
2018-05-08T13:23:13.843Z,2625
2018-05-08T13:24:24.423Z,2660
2018-05-08T13:25:34.411Z,2690
2018-05-08T13:26:44.107Z,2725
2018-05-08T13:27:54.527Z,2725
2018-05-08T13:29:04.691Z,2605
2018-05-08T13:30:14.679Z,2515
2018-05-08T13:31:24.951Z,2480
2018-05-08T13:32:35.263Z,2520
2018-05-08T13:33:45.475Z,2650
2018-05-08T13:34:55.403Z,2765
2018-05-08T13:36:05.322Z,2785
2018-05-08T13:37:15.588Z,2735
2018-05-08T13:38:25.765Z,2670
2018-05-08T13:39:35.990Z,2620
2018-05-08T13:40:45.918Z,2605
2018-05-08T13:41:56.407Z,2595
2018-05-08T13:43:06.597Z,2615
2018-05-08T13:44:16.787Z,2540
2018-05-08T13:45:27.078Z,2505
2018-05-08T13:46:37.314Z,2445
2018-05-08T13:47:47.574Z,2365
2018-05-08T13:48:57.749Z,2340
2018-05-08T13:50:07.688Z,2400
2018-05-08T13:51:17.884Z,2510
2018-05-08T13:52:28.262Z,2585
2018-05-08T13:53:38.224Z,2565
2018-05-08T13:54:48.516Z,2480
2018-05-08T13:55:58.436Z,2380
2018-05-08T13:57:08.593Z,2240
2018-05-08T13:58:18.765Z,2110
2018-05-08T13:59:29.938Z,2040
2018-05-08T14:00:40.131Z,2055
2018-05-08T14:01:50.352Z,2135
2018-05-08T14:03:00.575Z,2185
2018-05-08T14:04:10.802Z,2210
2018-05-08T14:05:21.002Z,2205
2018-05-08T14:06:31.509Z,2160
2018-05-08T14:07:41.731Z,2105
2018-05-08T14:08:51.660Z,2115
2018-05-08T14:10:01.860Z,2150
2018-05-08T14:11:12.036Z,2200
2018-05-08T14:12:22.239Z,2180
2018-05-08T14:13:32.460Z,2095
2018-05-08T14:14:42.655Z,2030
2018-05-08T14:15:52.959Z,1945
2018-05-08T14:17:03.136Z,1945
2018-05-08T14:18:13.356Z,1960
2018-05-08T14:19:23.895Z,1905
2018-05-08T14:20:33.801Z,1835
2018-05-08T14:21:43.995Z,1805
2018-05-08T14:22:53.814Z,1800
2018-05-08T14:24:04.080Z,1845
2018-05-08T14:25:14.315Z,1925
2018-05-08T14:26:24.492Z,1980
2018-05-08T14:27:34.420Z,1985
2018-05-08T14:28:45.213Z,1955
2018-05-08T14:29:55.575Z,1900
2018-05-08T14:31:05.820Z,1820
2018-05-08T14:32:16.072Z,1775
2018-05-08T14:33:26.331Z,1810
2018-05-08T14:34:36.527Z,1905
2018-05-08T14:35:46.458Z,2030
2018-05-08T14:36:56.705Z,2035
2018-05-08T14:38:06.611Z,1895
2018-05-08T14:39:16.870Z,1715
2018-05-08T14:40:26.840Z,1690
2018-05-08T14:41:36.748Z,1790
2018-05-08T14:42:46.717Z,1895
2018-05-08T14:43:56.613Z,1920
2018-05-08T14:45:07.037Z,1815
2018-05-08T14:46:17.226Z,1725
2018-05-08T14:47:27.182Z,1715
2018-05-08T14:48:37.364Z,1765
2018-05-08T14:49:47.773Z,1760
2018-05-08T14:50:57.941Z,1635
2018-05-08T14:52:08.122Z,1550
2018-05-08T14:53:18.339Z,1580
2018-05-08T14:54:28.238Z,1645
2018-05-08T14:55:38.541Z,1695
2018-05-08T14:56:48.764Z,1735
2018-05-08T14:57:59.029Z,1790
2018-05-08T14:59:09.386Z,1820
2018-05-08T15:00:19.564Z,1715
2018-05-08T15:01:29.781Z,1570
2018-05-08T15:02:39.537Z,1570
2018-05-08T15:03:50.418Z,1635
2018-05-08T15:05:00.605Z,1615
2018-05-08T15:06:10.682Z,1480
2018-05-08T15:07:20.925Z,1390
2018-05-08T15:08:31.112Z,1390
2018-05-08T15:09:42.242Z,1380
2018-05-08T15:10:52.404Z,1335
2018-05-08T15:12:02.610Z,1275
2018-05-08T15:13:14.112Z,1295
2018-05-08T15:14:24.459Z,1365
2018-05-08T15:15:34.834Z,1435
2018-05-08T15:16:45.000Z,1450
2018-05-08T15:17:55.173Z,1405
2018-05-08T15:19:05.436Z,1335
2018-05-08T15:20:15.617Z,1265
2018-05-08T15:21:25.885Z,835
2018-05-08T15:22:36.147Z,425
2018-05-08T15:23:46.062Z,360
2018-05-08T15:24:56.227Z,330
2018-05-08T15:26:07.416Z,310
2018-05-08T15:27:17.894Z,305
2018-05-08T15:28:27.957Z,285
2018-05-08T15:29:38.142Z,275
2018-05-08T15:30:48.307Z,270
2018-05-08T15:31:58.495Z,260
2018-05-08T15:33:08.702Z,260
2018-05-08T15:34:18.865Z,250
2018-05-08T15:35:29.059Z,240
2018-05-08T15:36:39.332Z,240
2018-05-08T15:37:49.306Z,235
2018-05-08T15:38:59.560Z,235
2018-05-08T15:40:09.560Z,235
2018-05-08T15:41:19.783Z,235
2018-05-08T15:42:29.588Z,230
2018-05-08T15:43:39.776Z,230
2018-05-08T15:44:49.948Z,230
2018-05-08T15:46:00.135Z,225
2018-05-08T15:47:10.405Z,220
2018-05-08T15:48:20.608Z,220
2018-05-08T15:49:30.876Z,220
2018-05-08T15:50:42.035Z,220
2018-05-08T15:51:51.603Z,215
2018-05-08T15:53:02.827Z,215
2018-05-08T15:54:13.021Z,215
2018-05-08T15:55:23.562Z,210
2018-05-08T15:56:33.792Z,210
2018-05-08T15:57:44.101Z,210
2018-05-08T15:58:54.266Z,205
2018-05-08T16:00:04.442Z,205
2018-05-08T16:01:14.612Z,205
2018-05-08T16:02:25.200Z,200
2018-05-08T16:03:35.391Z,200
2018-05-08T16:04:45.618Z,200
2018-05-08T16:05:55.521Z,195
2018-05-08T16:07:05.703Z,195
2018-05-08T16:08:15.903Z,195
2018-05-08T16:09:26.073Z,190
2018-05-08T16:10:36.312Z,190